Skip Navigation Links
NOAA logo - Click to go to the NOAA homepage
NOAA's National Weather Service
Alaska Aviation Weather Unit
  NWS logo - Click to go to the NWS homepage
Left Navbar Graphic     17 AKDT = 01 GMT

   
NOAA is celebrating 200 years of science, service, and stewardship. Visit the NOAA 200th celebration Web site to learn more.
USA.gov is the U.S. Government's official Web portal to all Federal, state and local government Web resources and services.
Facebook
NWS on Facebook

Important Change Regarding the AAWU Web Presence

 

Over the last several months, the AAWU has been working to navigate its webpages to a nationally supported server. Security, as well as other needs, have necessitated the change.  In the process, we have made an effort to enhance the functionality of our website, as well as some of our products. As of June 27, 2017, aawu.arh.noaa.gov will be discontinued. The new AAWU web address is weather.gov/aawu. It is now live and will run in-parallel with the old site until it is discontinued. Please send any feedback or questions regarding the new webpages to nws.ar.aawu.webauthors@noaa.gov.  Thank you for your patience during this time of transition.
AAWU Home :: Display TAF Add Bookmark
TAF PAOM 252334Z 2600/2624 13008KT P6SM BKN028 OVC035
     FM260600 07005KT P6SM SCT035 BKN100
     FM261200 07010KT 4SM BR BKN050
     FM261500 11015KT P6SM OVC050=

PAOM 251912Z 09012KT 10SM SCT023 OVC032 09/07 A2996= PAOM 251912Z 09012KT 10SM SCT023 OVC032 09/07 A2996 RMK AO2 T00940067 CHINO NE $= PAOM 251944Z 08013KT 10SM FEW020 OVC028 09/07 A2995= SPECI PAOM 251944Z 08013KT 10SM FEW020 OVC028 09/07 A2995 RMK AO2 T00940067 CHINO NE $= METAR PAOM 251953Z 09013KT 10SM FEW018 BKN025 OVC030 09/07 A2995= PAOM 252039Z 12015KT 10SM FEW017 OVC030 10/08 A2994= PAOM 252039Z 12015KT 10SM FEW017 OVC030 10/08 A2994 RMK AO2 T01000078 CHINO NE $= METAR PAOM 252053Z 12014KT 10SM BKN030 BKN060 11/08 A2994= METAR PAOM 252153Z 12012KT 10SM BKN031 BKN060 11/08 A2993= METAR PAOM 252253Z 13008KT 10SM OVC031 11/08 A2991= PAOM 252319Z 12007KT 10SM BKN028 OVC033 11/08 A2990= PAOM 252319Z 12007KT 10SM BKN028 OVC033 11/08 A2990 RMK AO2 T01110083 CHINO NE $= METAR PAOM 252351Z 13007KT 10SM SCT024 OVC030 11/09 A2989= METAR PAOM 252353Z 13008KT 10SM BKN025 OVC031 11/08 A2989= METAR PAOM 260051Z 13011KT 10SM FEW009 SCT017 BKN022 12/09 A2987= METAR PAOM 260053Z 13010KT 10SM FEW009 SCT017 BKN023 12/09 A2987 RMK AO2 SLP115 T01170094 CHINO NE $= PAOM 260057Z 14011KT 10SM FEW010 SCT023 BKN032 11/09 A2987= PAOM 260057Z 14011KT 10SM FEW010 SCT023 BKN032 11/09 A2987 RMK AO2 T01110094 CHINO NE $=
 Alaska TAF Map

NOAA's National Weather Service
Alaska Aviation Weather Unit
6930 Sand Lake Road
Anchorage, AK 99502-1845
Disclaimer
Credits
Glossary
Privacy Policy
About Us
Career Opportunities
Contact AAWU Internet Services Site last modified: April, 17th 2012